sensor_id;sensor_type;location;lat;lon;timestamp;P1;durP1;ratioP1;P2;durP2;ratioP2
11016;SDS011;54687;50.800;6.772;2023-08-20T00:00:18;5.80;;;5.20;;
11016;SDS011;54687;50.800;6.772;2023-08-20T00:02:47;5.00;;;4.60;;
11016;SDS011;54687;50.800;6.772;2023-08-20T00:05:21;6.53;;;5.28;;
11016;SDS011;54687;50.800;6.772;2023-08-20T00:07:48;5.53;;;5.00;;
11016;SDS011;54687;50.800;6.772;2023-08-20T00:10:16;5.43;;;5.03;;
11016;SDS011;54687;50.800;6.772;2023-08-20T00:12:43;5.80;;;5.30;;
11016;SDS011;54687;50.800;6.772;2023-08-20T00:15:09;5.65;;;5.15;;
11016;SDS011;54687;50.800;6.772;2023-08-20T00:17:36;5.45;;;5.05;;
11016;SDS011;54687;50.800;6.772;2023-08-20T00:20:09;5.43;;;4.93;;
11016;SDS011;54687;50.800;6.772;2023-08-20T00:22:39;5.45;;;5.00;;
11016;SDS011;54687;50.800;6.772;2023-08-20T00:25:14;6.68;;;4.93;;
11016;SDS011;54687;50.800;6.772;2023-08-20T00:27:44;5.57;;;5.07;;
11016;SDS011;54687;50.800;6.772;2023-08-20T00:30:13;5.18;;;4.78;;
11016;SDS011;54687;50.800;6.772;2023-08-20T00:32:56;5.60;;;5.10;;
11016;SDS011;54687;50.800;6.772;2023-08-20T00:35:26;6.20;;;5.60;;
11016;SDS011;54687;50.800;6.772;2023-08-20T00:37:55;6.18;;;5.57;;
11016;SDS011;54687;50.800;6.772;2023-08-20T00:40:22;5.85;;;5.25;;
11016;SDS011;54687;50.800;6.772;2023-08-20T00:42:50;5.80;;;4.78;;
11016;SDS011;54687;50.800;6.772;2023-08-20T00:45:17;6.20;;;5.60;;
11016;SDS011;54687;50.800;6.772;2023-08-20T00:47:43;5.80;;;5.15;;
11016;SDS011;54687;50.800;6.772;2023-08-20T00:50:10;6.47;;;5.32;;
11016;SDS011;54687;50.800;6.772;2023-08-20T00:52:39;5.45;;;4.95;;
11016;SDS011;54687;50.800;6.772;2023-08-20T00:55:07;5.38;;;4.95;;
11016;SDS011;54687;50.800;6.772;2023-08-20T00:57:34;5.57;;;4.57;;
11016;SDS011;54687;50.800;6.772;2023-08-20T01:00:02;5.07;;;4.68;;
11016;SDS011;54687;50.800;6.772;2023-08-20T01:02:32;5.55;;;5.05;;
11016;SDS011;54687;50.800;6.772;2023-08-20T01:04:59;5.95;;;4.90;;
11016;SDS011;54687;50.800;6.772;2023-08-20T01:07:29;5.57;;;4.93;;
11016;SDS011;54687;50.800;6.772;2023-08-20T01:10:06;5.43;;;5.00;;
11016;SDS011;54687;50.800;6.772;2023-08-20T01:12:39;6.38;;;5.78;;
11016;SDS011;54687;50.800;6.772;2023-08-20T01:15:07;5.53;;;5.03;;
11016;SDS011;54687;50.800;6.772;2023-08-20T01:17:38;5.63;;;5.13;;
11016;SDS011;54687;50.800;6.772;2023-08-20T01:20:06;7.80;;;5.07;;
11016;SDS011;54687;50.800;6.772;2023-08-20T01:22:39;5.97;;;5.10;;
11016;SDS011;54687;50.800;6.772;2023-08-20T01:25:23;6.65;;;5.70;;
11016;SDS011;54687;50.800;6.772;2023-08-20T01:27:58;8.05;;;5.43;;
11016;SDS011;54687;50.800;6.772;2023-08-20T01:30:33;7.20;;;5.82;;
11016;SDS011;54687;50.800;6.772;2023-08-20T01:33:00;6.53;;;5.43;;
11016;SDS011;54687;50.800;6.772;2023-08-20T01:35:28;6.18;;;5.50;;
11016;SDS011;54687;50.800;6.772;2023-08-20T01:37:54;6.30;;;5.80;;
11016;SDS011;54687;50.800;6.772;2023-08-20T01:40:21;5.88;;;5.28;;
11016;SDS011;54687;50.800;6.772;2023-08-20T01:42:47;6.55;;;5.15;;
11016;SDS011;54687;50.800;6.772;2023-08-20T01:45:14;5.40;;;4.90;;
11016;SDS011;54687;50.800;6.772;2023-08-20T01:47:42;5.78;;;5.25;;
11016;SDS011;54687;50.800;6.772;2023-08-20T01:50:09;5.95;;;5.45;;
11016;SDS011;54687;50.800;6.772;2023-08-20T01:52:36;7.95;;;5.57;;
11016;SDS011;54687;50.800;6.772;2023-08-20T01:55:03;6.10;;;5.60;;
11016;SDS011;54687;50.800;6.772;2023-08-20T01:57:31;5.68;;;5.22;;
11016;SDS011;54687;50.800;6.772;2023-08-20T01:59:58;5.50;;;5.00;;
11016;SDS011;54687;50.800;6.772;2023-08-20T02:02:25;5.95;;;5.40;;
11016;SDS011;54687;50.800;6.772;2023-08-20T02:04:53;6.90;;;5.47;;
11016;SDS011;54687;50.800;6.772;2023-08-20T02:07:19;6.57;;;5.88;;
11016;SDS011;54687;50.800;6.772;2023-08-20T02:09:46;5.70;;;5.20;;
11016;SDS011;54687;50.800;6.772;2023-08-20T02:12:12;5.90;;;5.40;;
11016;SDS011;54687;50.800;6.772;2023-08-20T02:14:39;6.50;;;5.30;;
11016;SDS011;54687;50.800;6.772;2023-08-20T02:17:06;6.10;;;5.55;;
11016;SDS011;54687;50.800;6.772;2023-08-20T02:19:33;6.25;;;5.65;;
11016;SDS011;54687;50.800;6.772;2023-08-20T02:22:01;5.82;;;5.20;;
11016;SDS011;54687;50.800;6.772;2023-08-20T02:24:28;7.97;;;5.65;;
11016;SDS011;54687;50.800;6.772;2023-08-20T02:26:54;6.32;;;5.68;;
11016;SDS011;54687;50.800;6.772;2023-08-20T02:29:21;6.22;;;5.72;;
11016;SDS011;54687;50.800;6.772;2023-08-20T02:31:47;7.05;;;5.68;;
11016;SDS011;54687;50.800;6.772;2023-08-20T02:34:14;6.30;;;5.70;;
11016;SDS011;54687;50.800;6.772;2023-08-20T02:36:40;5.72;;;5.22;;
11016;SDS011;54687;50.800;6.772;2023-08-20T02:39:08;6.05;;;5.47;;
11016;SDS011;54687;50.800;6.772;2023-08-20T02:41:35;6.93;;;5.25;;
11016;SDS011;54687;50.800;6.772;2023-08-20T02:44:02;5.68;;;5.00;;
11016;SDS011;54687;50.800;6.772;2023-08-20T02:46:29;10.88;;;5.80;;
11016;SDS011;54687;50.800;6.772;2023-08-20T02:48:56;5.82;;;5.32;;
11016;SDS011;54687;50.800;6.772;2023-08-20T02:51:22;7.07;;;5.75;;
11016;SDS011;54687;50.800;6.772;2023-08-20T02:53:49;5.47;;;4.97;;
11016;SDS011;54687;50.800;6.772;2023-08-20T02:56:17;6.55;;;5.30;;
11016;SDS011;54687;50.800;6.772;2023-08-20T02:58:43;7.47;;;6.20;;
11016;SDS011;54687;50.800;6.772;2023-08-20T03:01:17;8.60;;;7.00;;
11016;SDS011;54687;50.800;6.772;2023-08-20T03:03:44;7.82;;;6.05;;
11016;SDS011;54687;50.800;6.772;2023-08-20T03:06:11;8.35;;;6.35;;
11016;SDS011;54687;50.800;6.772;2023-08-20T03:08:37;6.78;;;5.70;;
11016;SDS011;54687;50.800;6.772;2023-08-20T03:11:04;6.90;;;6.28;;
11016;SDS011;54687;50.800;6.772;2023-08-20T03:13:32;7.05;;;6.43;;
11016;SDS011;54687;50.800;6.772;2023-08-20T03:15:58;6.30;;;5.82;;
11016;SDS011;54687;50.800;6.772;2023-08-20T03:18:25;6.22;;;5.72;;
11016;SDS011;54687;50.800;6.772;2023-08-20T03:20:53;7.97;;;6.10;;
11016;SDS011;54687;50.800;6.772;2023-08-20T03:23:20;7.82;;;5.85;;
11016;SDS011;54687;50.800;6.772;2023-08-20T03:25:47;6.60;;;6.05;;
11016;SDS011;54687;50.800;6.772;2023-08-20T03:28:14;9.10;;;5.60;;
11016;SDS011;54687;50.800;6.772;2023-08-20T03:30:43;7.55;;;6.85;;
11016;SDS011;54687;50.800;6.772;2023-08-20T03:33:09;6.43;;;5.90;;
11016;SDS011;54687;50.800;6.772;2023-08-20T03:35:36;7.28;;;6.20;;
11016;SDS011;54687;50.800;6.772;2023-08-20T03:38:02;7.15;;;6.55;;
11016;SDS011;54687;50.800;6.772;2023-08-20T03:40:29;6.45;;;5.85;;
11016;SDS011;54687;50.800;6.772;2023-08-20T03:42:56;7.55;;;6.70;;
11016;SDS011;54687;50.800;6.772;2023-08-20T03:45:22;7.53;;;6.63;;
11016;SDS011;54687;50.800;6.772;2023-08-20T03:47:50;7.55;;;6.85;;
11016;SDS011;54687;50.800;6.772;2023-08-20T03:50:17;6.68;;;6.07;;
11016;SDS011;54687;50.800;6.772;2023-08-20T03:52:44;7.00;;;6.30;;
11016;SDS011;54687;50.800;6.772;2023-08-20T03:55:10;7.25;;;6.43;;
11016;SDS011;54687;50.800;6.772;2023-08-20T03:57:37;9.45;;;6.57;;
11016;SDS011;54687;50.800;6.772;2023-08-20T04:00:04;7.18;;;6.47;;
11016;SDS011;54687;50.800;6.772;2023-08-20T04:02:33;7.28;;;6.68;;
11016;SDS011;54687;50.800;6.772;2023-08-20T04:05:01;8.15;;;6.68;;
11016;SDS011;54687;50.800;6.772;2023-08-20T04:07:29;7.60;;;6.82;;
11016;SDS011;54687;50.800;6.772;2023-08-20T04:09:56;6.38;;;5.82;;
11016;SDS011;54687;50.800;6.772;2023-08-20T04:12:22;7.35;;;6.65;;
11016;SDS011;54687;50.800;6.772;2023-08-20T04:14:49;6.00;;;5.50;;
11016;SDS011;54687;50.800;6.772;2023-08-20T04:17:16;6.78;;;6.00;;
11016;SDS011;54687;50.800;6.772;2023-08-20T04:19:42;8.25;;;7.22;;
11016;SDS011;54687;50.800;6.772;2023-08-20T04:22:10;6.85;;;6.22;;
11016;SDS011;54687;50.800;6.772;2023-08-20T04:24:37;9.77;;;7.03;;
11016;SDS011;54687;50.800;6.772;2023-08-20T04:27:04;8.52;;;6.85;;
11016;SDS011;54687;50.800;6.772;2023-08-20T04:29:32;9.57;;;6.57;;
11016;SDS011;54687;50.800;6.772;2023-08-20T04:31:59;8.05;;;6.55;;
11016;SDS011;54687;50.800;6.772;2023-08-20T04:34:25;7.07;;;6.38;;
11016;SDS011;54687;50.800;6.772;2023-08-20T04:36:52;7.35;;;6.63;;
11016;SDS011;54687;50.800;6.772;2023-08-20T04:39:20;8.57;;;6.18;;
11016;SDS011;54687;50.800;6.772;2023-08-20T04:41:46;7.68;;;6.88;;
11016;SDS011;54687;50.800;6.772;2023-08-20T04:44:13;8.93;;;6.88;;
11016;SDS011;54687;50.800;6.772;2023-08-20T04:46:39;6.60;;;5.97;;
11016;SDS011;54687;50.800;6.772;2023-08-20T04:49:06;8.27;;;6.32;;
11016;SDS011;54687;50.800;6.772;2023-08-20T04:51:33;6.90;;;6.30;;
11016;SDS011;54687;50.800;6.772;2023-08-20T04:53:59;10.95;;;7.53;;
11016;SDS011;54687;50.800;6.772;2023-08-20T04:56:28;12.07;;;7.18;;
11016;SDS011;54687;50.800;6.772;2023-08-20T04:58:54;10.65;;;7.85;;
11016;SDS011;54687;50.800;6.772;2023-08-20T05:01:21;9.18;;;8.05;;
11016;SDS011;54687;50.800;6.772;2023-08-20T05:03:47;8.35;;;7.53;;
11016;SDS011;54687;50.800;6.772;2023-08-20T05:06:14;9.48;;;8.07;;
11016;SDS011;54687;50.800;6.772;2023-08-20T05:08:41;11.55;;;7.80;;
11016;SDS011;54687;50.800;6.772;2023-08-20T05:11:07;11.13;;;8.07;;
11016;SDS011;54687;50.800;6.772;2023-08-20T05:13:35;9.15;;;8.25;;
11016;SDS011;54687;50.800;6.772;2023-08-20T05:16:02;11.95;;;8.23;;
11016;SDS011;54687;50.800;6.772;2023-08-20T05:18:28;10.15;;;7.13;;
11016;SDS011;54687;50.800;6.772;2023-08-20T05:20:55;9.60;;;8.13;;
11016;SDS011;54687;50.800;6.772;2023-08-20T05:23:22;10.25;;;8.23;;
11016;SDS011;54687;50.800;6.772;2023-08-20T05:25:49;10.27;;;7.70;;
11016;SDS011;54687;50.800;6.772;2023-08-20T05:28:15;12.88;;;8.55;;
11016;SDS011;54687;50.800;6.772;2023-08-20T05:30:43;10.27;;;7.75;;
11016;SDS011;54687;50.800;6.772;2023-08-20T05:33:10;8.00;;;7.20;;
11016;SDS011;54687;50.800;6.772;2023-08-20T05:35:36;8.25;;;7.18;;
11016;SDS011;54687;50.800;6.772;2023-08-20T05:38:03;9.75;;;8.45;;
11016;SDS011;54687;50.800;6.772;2023-08-20T05:40:30;9.52;;;8.27;;
11016;SDS011;54687;50.800;6.772;2023-08-20T05:42:56;9.68;;;7.97;;
11016;SDS011;54687;50.800;6.772;2023-08-20T05:45:23;8.98;;;8.07;;
11016;SDS011;54687;50.800;6.772;2023-08-20T05:47:51;9.95;;;7.70;;
11016;SDS011;54687;50.800;6.772;2023-08-20T05:50:20;8.20;;;7.40;;
11016;SDS011;54687;50.800;6.772;2023-08-20T05:52:49;8.18;;;7.38;;
11016;SDS011;54687;50.800;6.772;2023-08-20T05:55:16;9.80;;;7.25;;
11016;SDS011;54687;50.800;6.772;2023-08-20T05:57:42;11.68;;;7.05;;
11016;SDS011;54687;50.800;6.772;2023-08-20T06:00:09;7.43;;;6.72;;
11016;SDS011;54687;50.800;6.772;2023-08-20T06:02:37;8.82;;;6.70;;
11016;SDS011;54687;50.800;6.772;2023-08-20T06:05:08;9.27;;;6.57;;
11016;SDS011;54687;50.800;6.772;2023-08-20T06:07:35;8.48;;;6.00;;
11016;SDS011;54687;50.800;6.772;2023-08-20T06:10:02;9.63;;;6.35;;
11016;SDS011;54687;50.800;6.772;2023-08-20T06:12:28;9.40;;;6.60;;
11016;SDS011;54687;50.800;6.772;2023-08-20T06:15:03;8.10;;;6.88;;
11016;SDS011;54687;50.800;6.772;2023-08-20T06:17:30;8.52;;;6.60;;
11016;SDS011;54687;50.800;6.772;2023-08-20T06:19:57;8.48;;;7.38;;
11016;SDS011;54687;50.800;6.772;2023-08-20T06:22:25;9.35;;;7.88;;
11016;SDS011;54687;50.800;6.772;2023-08-20T06:24:52;11.27;;;7.38;;
11016;SDS011;54687;50.800;6.772;2023-08-20T06:27:19;12.52;;;9.38;;
11016;SDS011;54687;50.800;6.772;2023-08-20T06:29:46;11.10;;;8.55;;
11016;SDS011;54687;50.800;6.772;2023-08-20T06:32:13;12.43;;;10.07;;
11016;SDS011;54687;50.800;6.772;2023-08-20T06:34:39;9.18;;;8.38;;
11016;SDS011;54687;50.800;6.772;2023-08-20T06:37:06;10.30;;;8.95;;
11016;SDS011;54687;50.800;6.772;2023-08-20T06:39:34;10.48;;;9.38;;
11016;SDS011;54687;50.800;6.772;2023-08-20T06:42:00;10.10;;;9.10;;
11016;SDS011;54687;50.800;6.772;2023-08-20T06:44:27;10.90;;;9.70;;
11016;SDS011;54687;50.800;6.772;2023-08-20T06:46:53;11.32;;;9.98;;
11016;SDS011;54687;50.800;6.772;2023-08-20T06:49:20;13.48;;;9.88;;
11016;SDS011;54687;50.800;6.772;2023-08-20T06:51:47;12.73;;;9.77;;
11016;SDS011;54687;50.800;6.772;2023-08-20T06:54:14;11.05;;;9.20;;
11016;SDS011;54687;50.800;6.772;2023-08-20T06:56:42;12.63;;;10.13;;
11016;SDS011;54687;50.800;6.772;2023-08-20T06:59:09;10.38;;;9.10;;
11016;SDS011;54687;50.800;6.772;2023-08-20T07:01:36;10.95;;;9.05;;
11016;SDS011;54687;50.800;6.772;2023-08-20T07:04:03;11.15;;;9.40;;
11016;SDS011;54687;50.800;6.772;2023-08-20T07:06:30;13.00;;;9.77;;
11016;SDS011;54687;50.800;6.772;2023-08-20T07:08:56;10.32;;;8.73;;
11016;SDS011;54687;50.800;6.772;2023-08-20T07:11:23;9.68;;;8.35;;
11016;SDS011;54687;50.800;6.772;2023-08-20T07:13:51;11.57;;;9.20;;
11016;SDS011;54687;50.800;6.772;2023-08-20T07:16:18;10.30;;;9.15;;
11016;SDS011;54687;50.800;6.772;2023-08-20T07:18:45;12.18;;;10.85;;
11016;SDS011;54687;50.800;6.772;2023-08-20T07:21:12;13.55;;;10.70;;
11016;SDS011;54687;50.800;6.772;2023-08-20T07:23:38;11.75;;;10.43;;
11016;SDS011;54687;50.800;6.772;2023-08-20T07:26:05;11.60;;;10.50;;
11016;SDS011;54687;50.800;6.772;2023-08-20T07:28:34;14.55;;;11.13;;
11016;SDS011;54687;50.800;6.772;2023-08-20T07:31:19;11.18;;;9.98;;
11016;SDS011;54687;50.800;6.772;2023-08-20T07:33:46;10.98;;;9.43;;
11016;SDS011;54687;50.800;6.772;2023-08-20T07:36:13;11.60;;;9.55;;
11016;SDS011;54687;50.800;6.772;2023-08-20T07:38:40;13.35;;;9.93;;
11016;SDS011;54687;50.800;6.772;2023-08-20T07:41:07;12.10;;;9.27;;
11016;SDS011;54687;50.800;6.772;2023-08-20T07:43:34;12.23;;;8.60;;
11016;SDS011;54687;50.800;6.772;2023-08-20T07:46:01;10.63;;;9.40;;
11016;SDS011;54687;50.800;6.772;2023-08-20T07:48:29;16.58;;;11.15;;
11016;SDS011;54687;50.800;6.772;2023-08-20T07:50:56;18.40;;;10.70;;
11016;SDS011;54687;50.800;6.772;2023-08-20T07:53:23;13.32;;;9.93;;
11016;SDS011;54687;50.800;6.772;2023-08-20T07:55:49;14.38;;;9.65;;
11016;SDS011;54687;50.800;6.772;2023-08-20T07:58:16;16.95;;;11.52;;
11016;SDS011;54687;50.800;6.772;2023-08-20T08:00:42;10.32;;;9.13;;
11016;SDS011;54687;50.800;6.772;2023-08-20T08:03:09;10.05;;;8.98;;
11016;SDS011;54687;50.800;6.772;2023-08-20T08:05:37;12.95;;;10.18;;
11016;SDS011;54687;50.800;6.772;2023-08-20T08:08:04;11.57;;;9.85;;
11016;SDS011;54687;50.800;6.772;2023-08-20T08:10:31;10.77;;;9.68;;
11016;SDS011;54687;50.800;6.772;2023-08-20T08:12:57;10.45;;;9.40;;
11016;SDS011;54687;50.800;6.772;2023-08-20T08:15:24;15.10;;;11.25;;
11016;SDS011;54687;50.800;6.772;2023-08-20T08:17:50;11.27;;;10.27;;
11016;SDS011;54687;50.800;6.772;2023-08-20T08:20:17;12.77;;;10.05;;
11016;SDS011;54687;50.800;6.772;2023-08-20T08:22:45;13.38;;;10.55;;
11016;SDS011;54687;50.800;6.772;2023-08-20T08:25:11;12.73;;;11.55;;
11016;SDS011;54687;50.800;6.772;2023-08-20T08:27:38;12.95;;;10.75;;
11016;SDS011;54687;50.800;6.772;2023-08-20T08:30:05;11.55;;;10.35;;
11016;SDS011;54687;50.800;6.772;2023-08-20T08:32:32;14.88;;;11.32;;
11016;SDS011;54687;50.800;6.772;2023-08-20T08:34:59;12.82;;;11.60;;
11016;SDS011;54687;50.800;6.772;2023-08-20T08:37:26;13.75;;;11.38;;
11016;SDS011;54687;50.800;6.772;2023-08-20T08:39:54;16.92;;;12.52;;
11016;SDS011;54687;50.800;6.772;2023-08-20T08:42:21;13.93;;;11.45;;
11016;SDS011;54687;50.800;6.772;2023-08-20T08:44:50;14.63;;;12.80;;
11016;SDS011;54687;50.800;6.772;2023-08-20T08:47:17;13.77;;;11.85;;
11016;SDS011;54687;50.800;6.772;2023-08-20T08:49:44;16.42;;;11.93;;
11016;SDS011;54687;50.800;6.772;2023-08-20T08:52:12;11.35;;;10.27;;
11016;SDS011;54687;50.800;6.772;2023-08-20T08:54:40;12.25;;;11.00;;
11016;SDS011;54687;50.800;6.772;2023-08-20T08:57:08;12.43;;;11.25;;
11016;SDS011;54687;50.800;6.772;2023-08-20T08:59:35;11.38;;;10.27;;
11016;SDS011;54687;50.800;6.772;2023-08-20T09:02:02;15.13;;;13.63;;
11016;SDS011;54687;50.800;6.772;2023-08-20T09:04:34;12.38;;;11.07;;
11016;SDS011;54687;50.800;6.772;2023-08-20T09:07:04;11.82;;;10.63;;
11016;SDS011;54687;50.800;6.772;2023-08-20T09:09:31;15.88;;;11.55;;
11016;SDS011;54687;50.800;6.772;2023-08-20T09:11:57;11.18;;;10.02;;
11016;SDS011;54687;50.800;6.772;2023-08-20T09:14:27;10.98;;;9.93;;
11016;SDS011;54687;50.800;6.772;2023-08-20T09:16:55;10.90;;;9.10;;
11016;SDS011;54687;50.800;6.772;2023-08-20T09:19:23;9.75;;;8.60;;
11016;SDS011;54687;50.800;6.772;2023-08-20T09:21:50;12.75;;;10.27;;
11016;SDS011;54687;50.800;6.772;2023-08-20T09:24:25;11.40;;;10.30;;
11016;SDS011;54687;50.800;6.772;2023-08-20T09:26:56;12.57;;;8.80;;
11016;SDS011;54687;50.800;6.772;2023-08-20T09:29:23;9.30;;;7.80;;
11016;SDS011;54687;50.800;6.772;2023-08-20T09:31:51;8.48;;;7.65;;
11016;SDS011;54687;50.800;6.772;2023-08-20T09:34:32;10.80;;;7.57;;
11016;SDS011;54687;50.800;6.772;2023-08-20T09:37:02;10.27;;;8.07;;
11016;SDS011;54687;50.800;6.772;2023-08-20T09:39:29;10.35;;;7.80;;
11016;SDS011;54687;50.800;6.772;2023-08-20T09:41:56;9.90;;;7.65;;
11016;SDS011;54687;50.800;6.772;2023-08-20T09:44:25;8.23;;;7.40;;
11016;SDS011;54687;50.800;6.772;2023-08-20T09:46:56;8.35;;;6.68;;
11016;SDS011;54687;50.800;6.772;2023-08-20T09:49:22;10.48;;;9.05;;
11016;SDS011;54687;50.800;6.772;2023-08-20T09:51:55;11.02;;;8.43;;
11016;SDS011;54687;50.800;6.772;2023-08-20T09:54:26;17.48;;;15.05;;
11016;SDS011;54687;50.800;6.772;2023-08-20T09:56:58;8.63;;;7.75;;
11016;SDS011;54687;50.800;6.772;2023-08-20T09:59:27;10.02;;;8.25;;
11016;SDS011;54687;50.800;6.772;2023-08-20T10:01:56;7.75;;;6.88;;
11016;SDS011;54687;50.800;6.772;2023-08-20T10:04:23;8.98;;;7.30;;
11016;SDS011;54687;50.800;6.772;2023-08-20T10:06:51;8.73;;;7.93;;
11016;SDS011;54687;50.800;6.772;2023-08-20T10:09:19;7.85;;;7.07;;
11016;SDS011;54687;50.800;6.772;2023-08-20T10:11:47;8.57;;;7.78;;
11016;SDS011;54687;50.800;6.772;2023-08-20T10:14:14;8.80;;;7.90;;
11016;SDS011;54687;50.800;6.772;2023-08-20T10:16:41;8.10;;;7.35;;
11016;SDS011;54687;50.800;6.772;2023-08-20T10:19:08;9.00;;;8.20;;
11016;SDS011;54687;50.800;6.772;2023-08-20T10:21:35;10.45;;;9.35;;
11016;SDS011;54687;50.800;6.772;2023-08-20T10:24:03;10.98;;;9.80;;
11016;SDS011;54687;50.800;6.772;2023-08-20T10:26:30;9.30;;;8.50;;
11016;SDS011;54687;50.800;6.772;2023-08-20T10:32:11;9.02;;;8.23;;
11016;SDS011;54687;50.800;6.772;2023-08-20T10:34:42;9.25;;;8.23;;
11016;SDS011;54687;50.800;6.772;2023-08-20T10:37:15;9.38;;;8.38;;
11016;SDS011;54687;50.800;6.772;2023-08-20T10:39:42;8.85;;;8.00;;
11016;SDS011;54687;50.800;6.772;2023-08-20T10:42:09;8.65;;;7.75;;
11016;SDS011;54687;50.800;6.772;2023-08-20T10:44:58;8.40;;;7.63;;
11016;SDS011;54687;50.800;6.772;2023-08-20T10:47:26;8.57;;;7.70;;
11016;SDS011;54687;50.800;6.772;2023-08-20T10:50:03;8.30;;;7.50;;
11016;SDS011;54687;50.800;6.772;2023-08-20T10:52:32;8.57;;;7.75;;
11016;SDS011;54687;50.800;6.772;2023-08-20T10:54:59;7.93;;;7.13;;
11016;SDS011;54687;50.800;6.772;2023-08-20T10:57:32;8.60;;;7.70;;
11016;SDS011;54687;50.800;6.772;2023-08-20T11:00:01;12.00;;;10.10;;
11016;SDS011;54687;50.800;6.772;2023-08-20T11:02:31;8.25;;;7.40;;
11016;SDS011;54687;50.800;6.772;2023-08-20T11:04:59;11.02;;;9.20;;
11016;SDS011;54687;50.800;6.772;2023-08-20T11:07:27;11.57;;;9.45;;
11016;SDS011;54687;50.800;6.772;2023-08-20T11:09:56;9.02;;;8.23;;
11016;SDS011;54687;50.800;6.772;2023-08-20T11:12:23;9.32;;;8.10;;
11016;SDS011;54687;50.800;6.772;2023-08-20T11:14:50;9.05;;;8.15;;
11016;SDS011;54687;50.800;6.772;2023-08-20T11:17:16;9.15;;;8.38;;
11016;SDS011;54687;50.800;6.772;2023-08-20T11:19:43;9.15;;;7.57;;
11016;SDS011;54687;50.800;6.772;2023-08-20T11:22:10;8.73;;;7.53;;
11016;SDS011;54687;50.800;6.772;2023-08-20T11:24:41;10.48;;;9.38;;
11016;SDS011;54687;50.800;6.772;2023-08-20T11:27:08;9.35;;;8.55;;
11016;SDS011;54687;50.800;6.772;2023-08-20T11:29:35;8.15;;;7.40;;
11016;SDS011;54687;50.800;6.772;2023-08-20T11:32:01;8.00;;;7.10;;
11016;SDS011;54687;50.800;6.772;2023-08-20T11:34:28;8.38;;;7.63;;
11016;SDS011;54687;50.800;6.772;2023-08-20T11:36:55;11.68;;;10.57;;
11016;SDS011;54687;50.800;6.772;2023-08-20T11:39:22;10.05;;;9.05;;
11016;SDS011;54687;50.800;6.772;2023-08-20T11:41:50;9.82;;;8.90;;
11016;SDS011;54687;50.800;6.772;2023-08-20T11:44:21;9.02;;;8.20;;
11016;SDS011;54687;50.800;6.772;2023-08-20T11:46:48;9.60;;;8.65;;
11016;SDS011;54687;50.800;6.772;2023-08-20T11:49:15;9.20;;;8.30;;
11016;SDS011;54687;50.800;6.772;2023-08-20T11:51:42;8.93;;;8.13;;
11016;SDS011;54687;50.800;6.772;2023-08-20T11:54:11;8.20;;;7.50;;
11016;SDS011;54687;50.800;6.772;2023-08-20T11:59:11;8.38;;;7.57;;
11016;SDS011;54687;50.800;6.772;2023-08-20T12:01:39;7.20;;;6.60;;
11016;SDS011;54687;50.800;6.772;2023-08-20T12:04:06;7.28;;;6.57;;
11016;SDS011;54687;50.800;6.772;2023-08-20T12:06:34;6.78;;;6.18;;
11016;SDS011;54687;50.800;6.772;2023-08-20T12:09:03;6.57;;;5.97;;
11016;SDS011;54687;50.800;6.772;2023-08-20T12:11:48;6.65;;;6.05;;
11016;SDS011;54687;50.800;6.772;2023-08-20T12:14:16;7.15;;;6.45;;
11016;SDS011;54687;50.800;6.772;2023-08-20T12:16:43;6.43;;;5.82;;
11016;SDS011;54687;50.800;6.772;2023-08-20T12:19:10;7.53;;;6.47;;
11016;SDS011;54687;50.800;6.772;2023-08-20T12:21:36;6.05;;;5.60;;
11016;SDS011;54687;50.800;6.772;2023-08-20T12:24:03;6.60;;;6.00;;
11016;SDS011;54687;50.800;6.772;2023-08-20T12:26:30;6.88;;;6.28;;
11016;SDS011;54687;50.800;6.772;2023-08-20T12:28:57;7.00;;;6.30;;
11016;SDS011;54687;50.800;6.772;2023-08-20T12:31:25;7.57;;;6.45;;
11016;SDS011;54687;50.800;6.772;2023-08-20T12:33:52;7.35;;;6.70;;
11016;SDS011;54687;50.800;6.772;2023-08-20T12:36:18;8.15;;;7.35;;
11016;SDS011;54687;50.800;6.772;2023-08-20T12:38:45;7.57;;;6.88;;
11016;SDS011;54687;50.800;6.772;2023-08-20T12:41:11;7.95;;;6.45;;
11016;SDS011;54687;50.800;6.772;2023-08-20T12:43:38;6.72;;;6.22;;
11016;SDS011;54687;50.800;6.772;2023-08-20T12:46:04;6.75;;;6.15;;
11016;SDS011;54687;50.800;6.772;2023-08-20T12:48:32;7.18;;;6.47;;
11016;SDS011;54687;50.800;6.772;2023-08-20T12:50:59;7.18;;;6.57;;
11016;SDS011;54687;50.800;6.772;2023-08-20T12:53:25;6.65;;;6.10;;
11016;SDS011;54687;50.800;6.772;2023-08-20T12:55:52;6.32;;;5.82;;
11016;SDS011;54687;50.800;6.772;2023-08-20T12:58:19;7.75;;;7.05;;
11016;SDS011;54687;50.800;6.772;2023-08-20T13:00:46;7.70;;;6.90;;
11016;SDS011;54687;50.800;6.772;2023-08-20T13:03:12;6.85;;;6.15;;
11016;SDS011;54687;50.800;6.772;2023-08-20T13:05:41;7.13;;;6.53;;
11016;SDS011;54687;50.800;6.772;2023-08-20T13:08:08;7.60;;;6.90;;
11016;SDS011;54687;50.800;6.772;2023-08-20T13:10:37;6.88;;;6.35;;
11016;SDS011;54687;50.800;6.772;2023-08-20T13:13:06;6.22;;;5.80;;
11016;SDS011;54687;50.800;6.772;2023-08-20T13:15:36;6.60;;;6.10;;
11016;SDS011;54687;50.800;6.772;2023-08-20T13:18:04;6.90;;;6.30;;
11016;SDS011;54687;50.800;6.772;2023-08-20T13:20:32;6.28;;;5.75;;
11016;SDS011;54687;50.800;6.772;2023-08-20T13:23:00;6.43;;;5.82;;
11016;SDS011;54687;50.800;6.772;2023-08-20T13:25:27;6.18;;;5.63;;
11016;SDS011;54687;50.800;6.772;2023-08-20T13:27:54;6.85;;;6.25;;
11016;SDS011;54687;50.800;6.772;2023-08-20T13:30:20;5.68;;;5.28;;
11016;SDS011;54687;50.800;6.772;2023-08-20T13:32:47;5.60;;;5.10;;
11016;SDS011;54687;50.800;6.772;2023-08-20T13:35:14;5.40;;;5.00;;
11016;SDS011;54687;50.800;6.772;2023-08-20T13:37:40;5.88;;;5.28;;
11016;SDS011;54687;50.800;6.772;2023-08-20T13:40:09;5.93;;;5.32;;
11016;SDS011;54687;50.800;6.772;2023-08-20T13:42:36;5.70;;;4.90;;
11016;SDS011;54687;50.800;6.772;2023-08-20T13:45:03;5.80;;;5.30;;
11016;SDS011;54687;50.800;6.772;2023-08-20T13:47:30;5.50;;;5.10;;
11016;SDS011;54687;50.800;6.772;2023-08-20T13:49:57;6.55;;;5.95;;
11016;SDS011;54687;50.800;6.772;2023-08-20T13:52:23;5.97;;;5.47;;
11016;SDS011;54687;50.800;6.772;2023-08-20T13:54:50;6.20;;;5.63;;
11016;SDS011;54687;50.800;6.772;2023-08-20T13:57:18;5.80;;;5.30;;
11016;SDS011;54687;50.800;6.772;2023-08-20T13:59:45;5.72;;;5.18;;
11016;SDS011;54687;50.800;6.772;2023-08-20T14:02:12;6.25;;;4.88;;
11016;SDS011;54687;50.800;6.772;2023-08-20T14:04:39;4.68;;;4.28;;
11016;SDS011;54687;50.800;6.772;2023-08-20T14:07:06;5.15;;;4.75;;
11016;SDS011;54687;50.800;6.772;2023-08-20T14:09:32;6.78;;;6.25;;
11016;SDS011;54687;50.800;6.772;2023-08-20T14:12:01;5.97;;;5.47;;
11016;SDS011;54687;50.800;6.772;2023-08-20T14:14:29;6.20;;;5.70;;
11016;SDS011;54687;50.800;6.772;2023-08-20T14:16:56;5.60;;;5.10;;
11016;SDS011;54687;50.800;6.772;2023-08-20T14:19:23;6.43;;;5.85;;
11016;SDS011;54687;50.800;6.772;2023-08-20T14:21:49;5.65;;;5.25;;
11016;SDS011;54687;50.800;6.772;2023-08-20T14:24:17;6.85;;;5.40;;
11016;SDS011;54687;50.800;6.772;2023-08-20T14:26:43;7.00;;;5.07;;
11016;SDS011;54687;50.800;6.772;2023-08-20T14:29:10;5.35;;;4.85;;
11016;SDS011;54687;50.800;6.772;2023-08-20T14:31:38;6.82;;;4.35;;
11016;SDS011;54687;50.800;6.772;2023-08-20T14:34:05;4.90;;;4.43;;
11016;SDS011;54687;50.800;6.772;2023-08-20T14:36:31;4.93;;;4.53;;
11016;SDS011;54687;50.800;6.772;2023-08-20T14:38:58;5.35;;;4.75;;
11016;SDS011;54687;50.800;6.772;2023-08-20T14:41:25;4.97;;;4.50;;
11016;SDS011;54687;50.800;6.772;2023-08-20T14:43:51;7.25;;;4.43;;
11016;SDS011;54687;50.800;6.772;2023-08-20T14:46:18;4.88;;;4.47;;
11016;SDS011;54687;50.800;6.772;2023-08-20T14:48:46;6.05;;;5.55;;
11016;SDS011;54687;50.800;6.772;2023-08-20T14:51:13;4.65;;;4.25;;